createdAt,value
2022-08-14T00:02:02.241Z,21.40
2022-08-14T00:04:35.465Z,21.40
2022-08-14T00:07:10.601Z,21.40
2022-08-14T00:09:39.956Z,21.40
2022-08-14T00:12:23.794Z,21.40
2022-08-14T00:14:54.915Z,21.30
2022-08-14T00:17:23.326Z,21.30
2022-08-14T00:19:52.597Z,21.20
2022-08-14T00:22:44.225Z,21.20
2022-08-14T00:25:10.577Z,21.20
2022-08-14T00:27:38.989Z,21.20
2022-08-14T00:30:10.891Z,21.10
2022-08-14T00:32:52.057Z,21.10
2022-08-14T00:36:33.802Z,21.00
2022-08-14T00:38:13.506Z,21.00
2022-08-14T00:40:46.076Z,21.00
2022-08-14T00:43:15.582Z,21.00
2022-08-14T00:45:52.585Z,21.10
2022-08-14T00:48:34.387Z,21.00
2022-08-14T00:51:07.630Z,20.90
2022-08-14T00:53:36.253Z,20.90
2022-08-14T00:56:07.107Z,20.80
2022-08-14T00:58:44.893Z,20.80
2022-08-14T01:01:14.651Z,20.80
2022-08-14T01:03:45.264Z,20.80
2022-08-14T01:06:16.880Z,20.80
2022-08-14T01:08:51.607Z,20.80
2022-08-14T01:11:35.613Z,20.80
2022-08-14T01:14:25.669Z,20.70
2022-08-14T01:16:55.419Z,20.80
2022-08-14T01:19:43.290Z,20.70
2022-08-14T01:22:13.530Z,20.60
2022-08-14T01:24:48.387Z,20.60
2022-08-14T01:27:22.325Z,20.70
2022-08-14T01:30:03.563Z,20.70
2022-08-14T01:32:37.730Z,20.60
2022-08-14T01:35:18.975Z,20.50
2022-08-14T01:37:56.101Z,20.60
2022-08-14T01:40:36.749Z,20.50
2022-08-14T01:43:14.275Z,20.50
2022-08-14T01:45:42.246Z,20.40
2022-08-14T01:48:13.422Z,20.40
2022-08-14T01:50:44.146Z,20.30
2022-08-14T01:53:14.583Z,20.40
2022-08-14T01:55:42.598Z,20.30
2022-08-14T01:58:19.476Z,20.30
2022-08-14T02:00:54.232Z,20.40
2022-08-14T02:03:23.367Z,20.20
2022-08-14T02:05:51.543Z,20.20
2022-08-14T02:08:22.206Z,20.20
2022-08-14T02:11:10.626Z,20.20
2022-08-14T02:13:39.921Z,20.20
2022-08-14T02:16:21.771Z,20.10
2022-08-14T02:18:50.512Z,20.10
2022-08-14T02:21:19.480Z,20.10
2022-08-14T02:23:54.504Z,20.10
2022-08-14T02:26:29.652Z,20.00
2022-08-14T02:29:03.589Z,20.00
2022-08-14T02:31:42.279Z,20.00
2022-08-14T02:34:21.948Z,20.00
2022-08-14T02:37:03.902Z,20.00
2022-08-14T02:39:38.462Z,20.00
2022-08-14T02:42:12.954Z,20.00
2022-08-14T02:44:48.815Z,19.90
2022-08-14T02:47:21.053Z,20.00
2022-08-14T02:49:50.485Z,19.90
2022-08-14T02:52:56.510Z,20.00
2022-08-14T02:55:15.536Z,19.80
2022-08-14T02:57:44.143Z,19.90
2022-08-14T03:00:18.607Z,19.80
2022-08-14T03:02:56.241Z,19.80
2022-08-14T03:05:35.889Z,19.80
2022-08-14T03:08:08.630Z,19.80
2022-08-14T03:10:41.645Z,19.80
2022-08-14T03:13:13.748Z,19.70
2022-08-14T03:15:55.602Z,19.70
2022-08-14T03:18:31.472Z,19.70
2022-08-14T03:21:01.729Z,19.70
2022-08-14T03:23:38.072Z,19.60
2022-08-14T03:26:13.175Z,19.60
2022-08-14T03:28:49.230Z,19.60
2022-08-14T03:31:22.093Z,19.60
2022-08-14T03:33:54.308Z,19.50
2022-08-14T03:37:51.952Z,19.50
2022-08-14T03:39:23.039Z,19.50
2022-08-14T03:42:01.521Z,19.50
2022-08-14T03:45:20.233Z,19.40
2022-08-14T03:47:17.708Z,19.40
2022-08-14T03:49:49.658Z,19.40
2022-08-14T03:52:38.916Z,19.30
2022-08-14T03:55:09.017Z,19.40
2022-08-14T03:57:38.738Z,19.30
2022-08-14T04:00:14.063Z,19.30
2022-08-14T04:03:01.342Z,19.20
2022-08-14T04:05:29.736Z,19.20
2022-08-14T04:08:29.540Z,19.20
2022-08-14T04:11:01.244Z,19.20
2022-08-14T04:13:34.072Z,19.10
2022-08-14T04:16:05.027Z,19.10
2022-08-14T04:18:33.929Z,19.20
2022-08-14T04:21:02.461Z,19.10
2022-08-14T04:23:33.718Z,19.00
2022-08-14T04:26:03.787Z,19.00
2022-08-14T04:29:01.658Z,19.00
2022-08-14T04:31:34.638Z,19.00
2022-08-14T04:34:16.967Z,19.10
2022-08-14T04:37:07.361Z,18.90
2022-08-14T04:39:57.316Z,18.80
2022-08-14T04:42:47.613Z,18.90
2022-08-14T04:45:21.732Z,18.90
2022-08-14T04:48:10.032Z,18.90
2022-08-14T04:50:44.256Z,18.90
2022-08-14T04:53:14.645Z,18.90
2022-08-14T04:55:45.085Z,18.80
2022-08-14T04:58:21.626Z,18.80
2022-08-14T05:01:03.053Z,18.90
2022-08-14T05:03:33.329Z,18.90
2022-08-14T05:06:04.321Z,18.90
2022-08-14T05:08:50.625Z,18.90
2022-08-14T05:11:23.865Z,18.90
2022-08-14T05:16:41.501Z,18.80
2022-08-14T05:19:24.302Z,18.80
2022-08-14T05:22:00.921Z,18.90
2022-08-14T05:24:44.298Z,18.80
2022-08-14T05:27:12.236Z,18.90
2022-08-14T05:29:40.910Z,18.80
2022-08-14T05:32:13.413Z,18.80
2022-08-14T05:34:45.559Z,18.80
2022-08-14T05:37:15.366Z,18.90
2022-08-14T05:39:44.369Z,18.90
2022-08-14T05:42:21.491Z,18.90
2022-08-14T05:44:49.915Z,18.90
2022-08-14T05:47:23.308Z,18.90
2022-08-14T05:49:51.782Z,19.00
2022-08-14T05:52:26.381Z,19.00
2022-08-14T05:55:09.523Z,19.00
2022-08-14T05:57:48.186Z,19.00
2022-08-14T06:00:28.283Z,19.10
2022-08-14T06:02:59.901Z,19.10
2022-08-14T06:05:29.449Z,19.10
2022-08-14T06:07:58.450Z,19.20
2022-08-14T06:10:28.360Z,19.20
2022-08-14T06:12:58.010Z,19.40
2022-08-14T06:15:30.074Z,19.20
2022-08-14T06:18:00.777Z,19.30
2022-08-14T06:20:31.066Z,19.40
2022-08-14T06:22:59.705Z,19.40
2022-08-14T06:25:28.183Z,19.50
2022-08-14T06:27:58.272Z,19.50
2022-08-14T06:30:46.077Z,19.50
2022-08-14T06:33:18.228Z,19.50
2022-08-14T06:35:47.381Z,19.60
2022-08-14T06:38:20.455Z,19.70
2022-08-14T06:40:53.292Z,19.70
2022-08-14T06:43:27.012Z,19.80
2022-08-14T06:45:57.173Z,19.80
2022-08-14T06:48:26.562Z,19.90
2022-08-14T06:50:57.903Z,19.90
2022-08-14T06:53:27.874Z,20.00
2022-08-14T06:56:02.149Z,20.10
2022-08-14T06:58:32.263Z,20.10
2022-08-14T07:01:24.789Z,20.20
2022-08-14T07:04:22.443Z,20.30
2022-08-14T07:06:51.339Z,20.30
2022-08-14T07:09:23.400Z,20.40
2022-08-14T07:11:51.738Z,20.50
2022-08-14T07:14:19.882Z,20.50
2022-08-14T07:16:47.797Z,20.60
2022-08-14T07:19:21.152Z,20.60
2022-08-14T07:21:50.291Z,20.80
2022-08-14T07:24:21.836Z,20.80
2022-08-14T07:26:54.349Z,20.90
2022-08-14T07:29:26.170Z,20.90
2022-08-14T07:31:54.407Z,21.00
2022-08-14T07:34:35.944Z,21.10
2022-08-14T07:37:05.316Z,21.10
2022-08-14T07:39:34.480Z,21.20
2022-08-14T07:42:03.313Z,21.30
2022-08-14T07:44:35.931Z,21.40
2022-08-14T07:47:15.911Z,21.60
2022-08-14T07:49:58.783Z,21.60
2022-08-14T07:52:30.511Z,21.70
2022-08-14T07:54:59.229Z,21.90
2022-08-14T07:57:28.225Z,21.90
2022-08-14T07:59:56.101Z,22.00
2022-08-14T08:02:40.709Z,22.10
2022-08-14T08:05:11.550Z,22.10
2022-08-14T08:07:41.044Z,22.30
2022-08-14T08:10:31.431Z,22.40
2022-08-14T08:13:22.330Z,22.40
2022-08-14T08:15:56.612Z,22.50
2022-08-14T08:18:29.200Z,22.60
2022-08-14T08:21:00.210Z,22.80
2022-08-14T08:23:40.148Z,22.80
2022-08-14T08:26:11.571Z,22.90
2022-08-14T08:28:41.501Z,23.00
2022-08-14T08:31:13.230Z,23.00
2022-08-14T08:33:43.537Z,23.20
2022-08-14T08:36:18.629Z,23.30
2022-08-14T08:39:15.620Z,23.40
2022-08-14T08:41:43.446Z,23.60
2022-08-14T08:44:17.525Z,23.60
2022-08-14T08:47:01.599Z,23.80
2022-08-14T08:49:43.107Z,23.90
2022-08-14T08:52:31.821Z,24.00
2022-08-14T08:55:04.320Z,24.10
2022-08-14T08:57:37.037Z,24.20
2022-08-14T09:00:25.867Z,24.40
2022-08-14T09:02:57.365Z,24.50
2022-08-14T09:05:26.116Z,24.50
2022-08-14T09:07:56.665Z,24.70
2022-08-14T09:10:27.103Z,24.60
2022-08-14T09:12:56.146Z,24.90
2022-08-14T09:15:24.364Z,25.00
2022-08-14T09:17:54.537Z,25.10
2022-08-14T09:20:26.245Z,25.10
2022-08-14T09:23:00.724Z,25.30
2022-08-14T09:25:58.626Z,25.30
2022-08-14T09:28:18.800Z,25.40
2022-08-14T09:30:52.954Z,25.50
2022-08-14T09:33:34.376Z,25.60
2022-08-14T09:36:18.479Z,25.80
2022-08-14T09:38:53.642Z,25.90
2022-08-14T09:42:20.658Z,26.20
2022-08-14T09:44:40.260Z,26.40
2022-08-14T09:47:11.153Z,26.40
2022-08-14T09:49:43.484Z,26.30
2022-08-14T09:52:32.910Z,26.40
2022-08-14T09:55:04.745Z,26.60
2022-08-14T09:57:37.551Z,26.70
2022-08-14T10:00:29.514Z,26.80
2022-08-14T10:03:05.542Z,27.00
2022-08-14T10:05:37.849Z,27.10
2022-08-14T10:08:25.411Z,27.30
2022-08-14T10:10:57.270Z,27.40
2022-08-14T10:13:42.830Z,27.40
2022-08-14T10:16:21.821Z,27.50
2022-08-14T10:19:05.172Z,27.80
2022-08-14T10:21:38.846Z,27.90
2022-08-14T10:24:36.944Z,28.00
2022-08-14T10:27:18.221Z,28.00
2022-08-14T10:29:49.893Z,28.20
2022-08-14T10:32:28.448Z,28.30
2022-08-14T10:35:13.415Z,28.50
2022-08-14T10:37:46.697Z,28.70
2022-08-14T10:40:36.996Z,28.80
2022-08-14T10:43:19.022Z,29.00
2022-08-14T10:46:03.721Z,29.10
2022-08-14T10:48:56.176Z,29.30
2022-08-14T10:51:26.406Z,29.30
2022-08-14T10:53:56.730Z,29.50
2022-08-14T10:56:35.170Z,29.60
2022-08-14T10:59:05.800Z,30.30
2022-08-14T11:01:41.089Z,29.90
2022-08-14T11:04:28.483Z,30.00
2022-08-14T11:06:59.799Z,30.20
2022-08-14T11:09:31.932Z,30.30
2022-08-14T11:12:34.983Z,30.30
2022-08-14T11:14:59.124Z,30.50
2022-08-14T11:17:31.868Z,30.50
2022-08-14T11:20:02.558Z,30.70
2022-08-14T11:22:56.458Z,30.90
2022-08-14T11:25:23.462Z,31.00
2022-08-14T11:27:53.505Z,31.20
2022-08-14T11:30:50.343Z,31.30
2022-08-14T11:33:14.098Z,31.40
2022-08-14T11:35:49.698Z,31.60
2022-08-14T11:38:21.566Z,31.70
2022-08-14T11:40:49.592Z,31.80
2022-08-14T11:43:22.642Z,31.90
2022-08-14T11:45:58.844Z,32.00
2022-08-14T11:49:04.409Z,32.20
2022-08-14T11:51:26.072Z,32.30
2022-08-14T11:54:03.946Z,32.30
2022-08-14T11:56:36.353Z,32.50
2022-08-14T11:59:04.702Z,32.50
2022-08-14T12:01:33.928Z,32.60
2022-08-14T12:04:31.805Z,32.70
2022-08-14T12:07:01.108Z,32.70
2022-08-14T12:09:31.389Z,32.60
2022-08-14T12:11:59.997Z,32.80
2022-08-14T12:14:34.824Z,33.00
2022-08-14T12:17:12.203Z,33.20
2022-08-14T12:19:53.903Z,33.20
2022-08-14T12:22:34.396Z,33.20
2022-08-14T12:25:07.139Z,33.40
2022-08-14T12:27:41.660Z,33.50
2022-08-14T12:30:21.129Z,33.50
2022-08-14T12:32:50.920Z,33.70
2022-08-14T12:35:18.836Z,33.70
2022-08-14T12:37:49.706Z,33.80
2022-08-14T12:40:24.918Z,33.90
2022-08-14T12:42:56.702Z,34.00
2022-08-14T12:45:33.852Z,34.30
2022-08-14T12:48:21.261Z,34.30
2022-08-14T12:50:53.829Z,34.30
2022-08-14T12:53:22.338Z,34.50
2022-08-14T12:56:22.417Z,34.30
2022-08-14T12:58:52.517Z,34.60
2022-08-14T13:01:23.227Z,34.60
2022-08-14T13:04:05.268Z,34.80
2022-08-14T13:06:34.329Z,34.80
2022-08-14T13:09:11.360Z,34.70
2022-08-14T13:11:44.913Z,34.90
2022-08-14T13:14:16.944Z,35.10
2022-08-14T13:16:50.610Z,35.30
2022-08-14T13:19:21.071Z,35.10
2022-08-14T13:21:58.725Z,35.30
2022-08-14T13:24:39.787Z,35.60
2022-08-14T13:27:09.756Z,35.70
2022-08-14T13:29:43.838Z,35.70
2022-08-14T13:32:16.176Z,35.50
2022-08-14T13:34:48.378Z,35.60
2022-08-14T13:37:17.284Z,35.80
2022-08-14T13:39:56.125Z,36.00
2022-08-14T13:42:30.212Z,36.20
2022-08-14T13:45:01.242Z,36.20
2022-08-14T13:47:32.988Z,36.30
2022-08-14T13:50:04.703Z,36.70
2022-08-14T13:52:51.285Z,37.00
2022-08-14T13:55:23.643Z,36.90
2022-08-14T13:57:57.811Z,37.10
2022-08-14T14:00:35.931Z,37.10
2022-08-14T14:03:22.174Z,37.20
2022-08-14T14:05:54.533Z,37.10
2022-08-14T14:08:43.694Z,37.20
2022-08-14T14:11:15.854Z,37.20
2022-08-14T14:13:45.102Z,37.50
2022-08-14T14:16:26.001Z,37.10
2022-08-14T14:19:08.746Z,37.00
2022-08-14T14:21:40.983Z,36.70
2022-08-14T14:24:14.773Z,37.00
2022-08-14T14:26:46.839Z,36.90
2022-08-14T14:29:15.140Z,36.50
2022-08-14T14:31:47.858Z,36.50
2022-08-14T14:34:29.811Z,36.50
2022-08-14T14:37:02.675Z,36.30
2022-08-14T14:39:37.745Z,36.30
2022-08-14T14:42:27.845Z,36.20
2022-08-14T14:45:05.593Z,36.40
2022-08-14T14:47:35.058Z,36.20
2022-08-14T14:50:05.012Z,36.00
2022-08-14T14:52:37.147Z,36.20
2022-08-14T14:55:09.183Z,36.40
2022-08-14T14:57:37.940Z,36.40
2022-08-14T15:00:12.591Z,36.50
2022-08-14T15:02:42.603Z,36.30
2022-08-14T15:05:12.678Z,36.40
2022-08-14T15:07:42.675Z,36.20
2022-08-14T15:10:27.393Z,36.00
2022-08-14T15:13:03.690Z,36.10
2022-08-14T15:15:33.123Z,36.00
2022-08-14T15:18:01.667Z,35.80
2022-08-14T15:20:31.418Z,35.60
2022-08-14T15:23:12.536Z,35.40
2022-08-14T15:25:40.898Z,35.40
2022-08-14T15:28:11.623Z,35.50
2022-08-14T15:30:41.410Z,35.40
2022-08-14T15:33:10.482Z,35.20
2022-08-14T15:35:46.021Z,35.00
2022-08-14T15:38:17.805Z,35.20
2022-08-14T15:40:55.894Z,35.00
2022-08-14T15:43:27.251Z,35.00
2022-08-14T15:45:59.242Z,34.90
2022-08-14T15:48:29.565Z,34.70
2022-08-14T15:50:58.545Z,34.70
2022-08-14T15:53:31.661Z,34.90
2022-08-14T15:56:00.152Z,34.80
2022-08-14T15:58:28.598Z,34.70
2022-08-14T16:01:26.432Z,34.70
2022-08-14T16:04:02.046Z,34.60
2022-08-14T16:06:30.989Z,34.50
2022-08-14T16:09:07.877Z,34.40
2022-08-14T16:11:47.522Z,34.20
2022-08-14T16:14:21.777Z,34.20
2022-08-14T16:17:00.433Z,34.10
2022-08-14T16:19:31.018Z,34.00
2022-08-14T16:22:59.466Z,34.00
2022-08-14T16:25:01.916Z,34.10
2022-08-14T16:27:33.596Z,34.00
2022-08-14T16:30:20.741Z,34.10
2022-08-14T16:33:01.298Z,34.20
2022-08-14T16:35:41.827Z,34.00
2022-08-14T16:38:19.568Z,33.90
2022-08-14T16:41:23.301Z,33.90
2022-08-14T16:43:53.925Z,33.90
2022-08-14T16:46:28.102Z,33.80
2022-08-14T16:48:58.888Z,33.80
2022-08-14T16:51:27.997Z,33.70
2022-08-14T16:53:56.775Z,33.40
2022-08-14T16:56:30.814Z,33.40
2022-08-14T16:59:08.160Z,33.30
2022-08-14T17:01:37.911Z,33.30
2022-08-14T17:04:14.851Z,33.30
2022-08-14T17:06:54.911Z,33.10
2022-08-14T17:09:32.077Z,33.00
2022-08-14T17:12:07.688Z,32.90
2022-08-14T17:14:59.361Z,32.90
2022-08-14T17:17:41.911Z,32.80
2022-08-14T17:20:54.670Z,32.80
2022-08-14T17:23:02.279Z,32.70
2022-08-14T17:25:39.666Z,32.60
2022-08-14T17:28:50.038Z,32.50
2022-08-14T17:31:09.131Z,32.40
2022-08-14T17:33:44.238Z,32.30
2022-08-14T17:36:22.962Z,32.20
2022-08-14T17:39:02.792Z,32.10
2022-08-14T17:41:43.448Z,32.00
2022-08-14T17:44:33.779Z,32.00
2022-08-14T17:47:11.042Z,31.90
2022-08-14T17:49:47.362Z,31.80
2022-08-14T17:52:34.502Z,31.70
2022-08-14T17:55:04.152Z,31.60
2022-08-14T17:57:35.217Z,31.50
2022-08-14T18:00:13.050Z,31.30
2022-08-14T18:02:50.608Z,31.20
2022-08-14T18:05:23.201Z,31.10
2022-08-14T18:08:00.219Z,30.90
2022-08-14T18:10:55.019Z,30.80
2022-08-14T18:13:49.881Z,30.70
2022-08-14T18:16:20.084Z,30.70
2022-08-14T18:18:51.578Z,30.60
2022-08-14T18:21:40.266Z,30.50
2022-08-14T18:24:28.381Z,30.60
2022-08-14T18:27:03.310Z,30.30
2022-08-14T18:29:43.332Z,30.30
2022-08-14T18:32:47.534Z,30.20
2022-08-14T18:35:45.957Z,30.10
2022-08-14T18:38:25.597Z,29.90
2022-08-14T18:40:56.000Z,29.70
2022-08-14T18:43:44.699Z,29.60
2022-08-14T18:46:59.528Z,29.50
2022-08-14T18:49:16.359Z,29.40
2022-08-14T18:51:46.117Z,29.30
2022-08-14T18:54:30.018Z,29.30
2022-08-14T18:57:03.025Z,29.00
2022-08-14T18:59:35.504Z,29.00
2022-08-14T19:02:42.439Z,28.90
2022-08-14T19:05:13.392Z,28.80
2022-08-14T19:07:43.512Z,28.70
2022-08-14T19:10:31.934Z,28.60
2022-08-14T19:13:11.895Z,28.50
2022-08-14T19:15:43.660Z,28.40
2022-08-14T19:18:26.164Z,28.30
2022-08-14T19:20:58.656Z,28.30
2022-08-14T19:23:42.157Z,28.10
2022-08-14T19:26:36.039Z,28.00
2022-08-14T19:29:37.785Z,28.00
2022-08-14T19:32:36.718Z,27.80
2022-08-14T19:35:16.569Z,27.70
2022-08-14T19:37:52.320Z,27.70
2022-08-14T19:40:33.985Z,27.50
2022-08-14T19:43:09.012Z,27.50
2022-08-14T19:45:38.303Z,27.40
2022-08-14T19:48:15.568Z,27.40
2022-08-14T19:50:46.350Z,27.20
2022-08-14T19:53:18.172Z,27.10
2022-08-14T19:55:59.360Z,27.10
2022-08-14T19:58:54.679Z,27.00
2022-08-14T20:01:27.460Z,26.90
2022-08-14T20:04:45.205Z,26.80
2022-08-14T20:07:00.150Z,26.70
2022-08-14T20:11:08.126Z,26.70
2022-08-14T20:12:34.522Z,26.60
2022-08-14T20:15:06.830Z,26.60
2022-08-14T20:17:50.035Z,26.40
2022-08-14T20:20:30.907Z,26.40
2022-08-14T20:23:11.406Z,26.30
2022-08-14T20:25:45.449Z,26.20
2022-08-14T20:28:31.881Z,26.20
2022-08-14T20:31:14.466Z,26.20
2022-08-14T20:34:06.185Z,26.10
2022-08-14T20:36:39.056Z,26.10
2022-08-14T20:39:15.658Z,26.00
2022-08-14T20:41:51.192Z,25.80
2022-08-14T20:44:40.321Z,25.90
2022-08-14T20:47:08.423Z,25.90
2022-08-14T20:49:37.283Z,25.80
2022-08-14T20:52:18.966Z,25.70
2022-08-14T20:54:53.002Z,25.80
2022-08-14T20:57:22.554Z,25.70
2022-08-14T20:59:52.976Z,25.70
2022-08-14T21:02:46.516Z,25.60
2022-08-14T21:05:33.905Z,25.60
2022-08-14T21:08:09.891Z,25.50
2022-08-14T21:10:56.603Z,25.50
2022-08-14T21:13:27.278Z,25.40
2022-08-14T21:16:34.279Z,25.40
2022-08-14T21:19:06.199Z,25.40
2022-08-14T21:21:40.717Z,25.20
2022-08-14T21:24:38.931Z,25.20
2022-08-14T21:27:04.431Z,25.20
2022-08-14T21:29:53.426Z,25.30
2022-08-14T21:32:35.184Z,25.10
2022-08-14T21:35:09.883Z,25.10
2022-08-14T21:37:46.060Z,25.00
2022-08-14T21:40:41.657Z,24.90
2022-08-14T21:43:07.388Z,24.90
2022-08-14T21:45:53.527Z,24.80
2022-08-14T21:48:25.351Z,24.70
2022-08-14T21:51:01.746Z,24.70
2022-08-14T21:53:58.678Z,24.70
2022-08-14T21:56:38.556Z,24.60
2022-08-14T21:59:09.939Z,24.60
2022-08-14T22:02:01.469Z,24.50
2022-08-14T22:04:33.800Z,24.40
2022-08-14T22:07:05.519Z,24.40
2022-08-14T22:09:36.885Z,24.30
2022-08-14T22:12:07.288Z,24.30
2022-08-14T22:14:43.637Z,24.20
2022-08-14T22:17:16.408Z,24.20
2022-08-14T22:19:54.456Z,24.10
2022-08-14T22:22:26.087Z,24.00
2022-08-14T22:25:00.091Z,24.00
2022-08-14T22:27:32.240Z,24.00
2022-08-14T22:30:01.268Z,23.90
2022-08-14T22:32:56.974Z,23.90
2022-08-14T22:35:18.680Z,23.80
2022-08-14T22:38:35.894Z,23.90
2022-08-14T22:41:08.933Z,23.60
2022-08-14T22:43:31.382Z,23.70
2022-08-14T22:46:02.041Z,23.70
2022-08-14T22:48:30.873Z,23.70
2022-08-14T22:50:59.367Z,23.60
2022-08-14T22:53:29.297Z,23.60
2022-08-14T22:55:57.902Z,23.60
2022-08-14T22:58:30.398Z,23.50
2022-08-14T23:01:00.161Z,23.50
2022-08-14T23:03:28.999Z,23.50
2022-08-14T23:05:57.224Z,23.40
2022-08-14T23:09:00.190Z,23.40
2022-08-14T23:11:16.490Z,23.40
2022-08-14T23:13:46.184Z,23.40
2022-08-14T23:16:19.894Z,23.30
2022-08-14T23:18:53.455Z,23.20
2022-08-14T23:21:24.503Z,23.20
2022-08-14T23:23:55.600Z,23.20
2022-08-14T23:26:48.551Z,23.20
2022-08-14T23:29:13.032Z,23.10
2022-08-14T23:31:44.427Z,23.10
2022-08-14T23:34:20.804Z,23.10
2022-08-14T23:36:57.073Z,23.10
2022-08-14T23:39:30.942Z,23.10
2022-08-14T23:42:02.322Z,23.00
2022-08-14T23:44:35.225Z,22.90
2022-08-14T23:47:12.200Z,22.90
2022-08-14T23:50:00.678Z,22.90
2022-08-14T23:52:50.273Z,22.80
2022-08-14T23:55:24.493Z,22.90
2022-08-14T23:57:57.689Z,22.70
